createdAt,value
2023-05-21T00:00:50.376Z,6.13
2023-05-21T00:01:51.852Z,6.07
2023-05-21T00:02:53.373Z,6.80
2023-05-21T00:03:54.965Z,6.47
2023-05-21T00:04:56.587Z,5.93
2023-05-21T00:05:58.115Z,6.55
2023-05-21T00:06:59.621Z,7.13
2023-05-21T00:08:01.109Z,6.55
2023-05-21T00:09:02.622Z,5.90
2023-05-21T00:10:04.093Z,6.20
2023-05-21T00:11:05.602Z,5.72
2023-05-21T00:12:07.073Z,6.90
2023-05-21T00:13:08.546Z,6.03
2023-05-21T00:14:10.027Z,5.97
2023-05-21T00:15:11.502Z,6.13
2023-05-21T00:16:13.436Z,6.00
2023-05-21T00:17:14.964Z,6.72
2023-05-21T00:18:16.432Z,6.85
2023-05-21T00:19:18.127Z,6.20
2023-05-21T00:20:19.637Z,6.70
2023-05-21T00:21:21.158Z,6.68
2023-05-21T00:22:22.664Z,5.90
2023-05-21T00:23:24.150Z,6.15
2023-05-21T00:24:25.643Z,6.90
2023-05-21T00:25:27.121Z,6.65
2023-05-21T00:26:28.620Z,6.80
2023-05-21T00:27:30.096Z,6.68
2023-05-21T00:28:31.604Z,6.18
2023-05-21T00:29:33.083Z,8.18
2023-05-21T00:30:34.594Z,6.20
2023-05-21T00:31:36.140Z,6.75
2023-05-21T00:32:37.702Z,6.50
2023-05-21T00:33:39.227Z,6.35
2023-05-21T00:34:40.737Z,6.30
2023-05-21T00:35:42.224Z,6.15
2023-05-21T00:36:43.776Z,6.65
2023-05-21T00:37:45.282Z,6.30
2023-05-21T00:38:46.778Z,7.03
2023-05-21T00:39:48.250Z,6.38
2023-05-21T00:40:49.740Z,5.93
2023-05-21T00:41:51.248Z,7.30
2023-05-21T00:42:52.738Z,6.75
2023-05-21T00:43:54.216Z,6.88
2023-05-21T00:44:55.705Z,6.57
2023-05-21T00:45:57.231Z,6.85
2023-05-21T00:46:58.815Z,6.35
2023-05-21T00:48:00.363Z,6.75
2023-05-21T00:49:01.938Z,6.93
2023-05-21T00:50:03.434Z,7.47
2023-05-21T00:51:04.937Z,6.18
2023-05-21T00:52:06.473Z,6.78
2023-05-21T00:53:07.993Z,7.00
2023-05-21T00:54:09.535Z,7.25
2023-05-21T00:55:11.120Z,6.55
2023-05-21T00:56:12.641Z,7.15
2023-05-21T00:57:14.140Z,7.18
2023-05-21T00:58:15.776Z,7.20
2023-05-21T00:59:17.303Z,6.65
2023-05-21T01:00:18.826Z,6.68
2023-05-21T01:01:20.488Z,6.40
2023-05-21T01:02:22.103Z,6.45
2023-05-21T01:03:23.969Z,7.85
2023-05-21T01:04:25.694Z,7.05
2023-05-21T01:05:27.176Z,7.28
2023-05-21T01:06:28.739Z,7.20
2023-05-21T01:07:30.228Z,7.43
2023-05-21T01:08:31.759Z,7.07
2023-05-21T01:09:33.251Z,7.63
2023-05-21T01:10:34.736Z,6.40
2023-05-21T01:11:36.245Z,6.85
2023-05-21T01:12:37.758Z,7.18
2023-05-21T01:13:39.288Z,7.32
2023-05-21T01:14:40.759Z,6.65
2023-05-21T01:15:42.231Z,7.30
2023-05-21T01:16:44.269Z,6.63
2023-05-21T01:17:45.938Z,6.70
2023-05-21T01:18:47.724Z,7.18
2023-05-21T01:19:49.416Z,6.70
2023-05-21T01:20:50.976Z,7.05
2023-05-21T01:21:52.471Z,7.18
2023-05-21T01:22:53.953Z,7.00
2023-05-21T01:23:55.442Z,6.70
2023-05-21T01:24:56.924Z,7.00
2023-05-21T01:25:58.433Z,6.97
2023-05-21T01:27:00.177Z,6.63
2023-05-21T01:28:01.665Z,6.90
2023-05-21T01:29:03.136Z,7.03
2023-05-21T01:30:04.621Z,7.82
2023-05-21T01:31:06.130Z,7.78
2023-05-21T01:32:07.662Z,7.82
2023-05-21T01:33:09.285Z,7.50
2023-05-21T01:34:10.907Z,7.47
2023-05-21T01:35:12.474Z,8.15
2023-05-21T01:36:13.951Z,6.55
2023-05-21T01:37:15.431Z,7.93
2023-05-21T01:38:17.370Z,7.88
2023-05-21T01:39:18.870Z,7.72
2023-05-21T01:40:20.365Z,7.32
2023-05-21T01:41:21.861Z,7.13
2023-05-21T01:42:23.417Z,7.68
2023-05-21T01:43:24.939Z,8.00
2023-05-21T01:44:26.440Z,6.65
2023-05-21T01:45:27.922Z,7.55
2023-05-21T01:46:29.415Z,7.78
2023-05-21T01:47:31.008Z,7.78
2023-05-21T01:48:32.990Z,8.60
2023-05-21T01:49:34.528Z,7.72
2023-05-21T01:50:35.988Z,7.97
2023-05-21T01:51:37.512Z,7.70
2023-05-21T01:52:39.017Z,8.60
2023-05-21T01:53:40.513Z,7.30
2023-05-21T01:54:42.020Z,7.55
2023-05-21T01:55:43.524Z,7.40
2023-05-21T01:56:45.026Z,7.15
2023-05-21T01:57:46.524Z,8.20
2023-05-21T01:58:48.039Z,6.55
2023-05-21T01:59:49.512Z,8.32
2023-05-21T02:00:51.075Z,7.47
2023-05-21T02:01:52.596Z,7.47
2023-05-21T02:02:54.221Z,6.93
2023-05-21T02:03:55.810Z,7.90
2023-05-21T02:04:57.350Z,7.03
2023-05-21T02:05:58.881Z,7.80
2023-05-21T02:07:00.381Z,7.85
2023-05-21T02:08:01.857Z,8.23
2023-05-21T02:09:03.408Z,7.20
2023-05-21T02:10:04.919Z,8.10
2023-05-21T02:11:06.493Z,8.32
2023-05-21T02:13:26.068Z,7.78
2023-05-21T02:14:28.133Z,7.50
2023-05-21T02:15:29.639Z,8.05
2023-05-21T02:16:31.182Z,7.93
2023-05-21T02:17:32.769Z,7.13
2023-05-21T02:18:34.256Z,7.40
2023-05-21T02:19:35.850Z,7.72
2023-05-21T02:20:37.418Z,6.88
2023-05-21T02:21:38.988Z,6.00
2023-05-21T02:22:40.504Z,6.70
2023-05-21T02:23:42.015Z,7.95
2023-05-21T02:24:43.486Z,7.95
2023-05-21T02:25:44.964Z,7.85
2023-05-21T02:26:46.470Z,7.90
2023-05-21T02:27:47.953Z,7.55
2023-05-21T02:28:49.431Z,7.10
2023-05-21T02:29:51.077Z,7.13
2023-05-21T02:30:52.586Z,7.38
2023-05-21T02:31:54.086Z,7.40
2023-05-21T02:32:55.605Z,7.15
2023-05-21T02:33:57.211Z,7.43
2023-05-21T02:34:58.705Z,7.47
2023-05-21T02:36:00.223Z,7.95
2023-05-21T02:37:01.819Z,8.23
2023-05-21T02:38:03.416Z,7.45
2023-05-21T02:39:04.917Z,7.18
2023-05-21T02:40:06.403Z,7.20
2023-05-21T02:41:07.880Z,8.23
2023-05-21T02:42:09.365Z,7.43
2023-05-21T02:43:10.867Z,7.68
2023-05-21T02:44:12.395Z,7.43
2023-05-21T02:45:13.875Z,7.15
2023-05-21T02:46:15.461Z,7.18
2023-05-21T02:47:16.987Z,8.10
2023-05-21T02:48:18.519Z,8.55
2023-05-21T02:49:20.299Z,7.32
2023-05-21T02:50:21.780Z,7.57
2023-05-21T02:51:23.251Z,7.43
2023-05-21T02:52:24.747Z,7.07
2023-05-21T02:53:26.256Z,8.73
2023-05-21T02:54:27.768Z,8.05
2023-05-21T02:55:29.261Z,8.20
2023-05-21T02:56:30.736Z,6.97
2023-05-21T02:57:32.230Z,8.00
2023-05-21T02:58:33.690Z,7.78
2023-05-21T02:59:35.183Z,8.05
2023-05-21T03:00:36.646Z,7.95
2023-05-21T03:01:38.164Z,7.60
2023-05-21T03:02:39.778Z,8.25
2023-05-21T03:03:41.358Z,7.68
2023-05-21T03:04:42.886Z,8.35
2023-05-21T03:05:44.405Z,7.60
2023-05-21T03:06:45.876Z,8.55
2023-05-21T03:07:47.353Z,8.10
2023-05-21T03:08:48.825Z,8.02
2023-05-21T03:09:50.325Z,8.10
2023-05-21T03:10:51.808Z,7.65
2023-05-21T03:11:53.281Z,7.72
2023-05-21T03:12:54.829Z,7.90
2023-05-21T03:13:56.326Z,8.60
2023-05-21T03:14:57.846Z,8.00
2023-05-21T03:15:59.335Z,8.18
2023-05-21T03:17:00.864Z,7.90
2023-05-21T03:18:02.458Z,7.40
2023-05-21T03:19:04.032Z,7.95
2023-05-21T03:20:05.754Z,8.35
2023-05-21T03:21:07.233Z,8.38
2023-05-21T03:22:08.746Z,7.85
2023-05-21T03:23:10.257Z,8.40
2023-05-21T03:24:11.740Z,8.05
2023-05-21T03:25:13.270Z,8.55
2023-05-21T03:26:14.749Z,9.00
2023-05-21T03:27:16.235Z,7.60
2023-05-21T03:28:17.729Z,7.93
2023-05-21T03:29:19.258Z,7.55
2023-05-21T03:30:20.765Z,8.43
2023-05-21T03:31:22.383Z,7.75
2023-05-21T03:32:23.999Z,7.50
2023-05-21T03:33:25.650Z,8.10
2023-05-21T03:34:27.116Z,8.20
2023-05-21T03:35:28.574Z,8.07
2023-05-21T03:36:30.018Z,7.57
2023-05-21T03:37:31.513Z,7.70
2023-05-21T03:38:34.063Z,8.35
2023-05-21T03:39:36.857Z,7.93
2023-05-21T03:40:38.324Z,8.00
2023-05-21T03:41:39.818Z,7.50
2023-05-21T03:42:41.347Z,7.72
2023-05-21T03:43:42.884Z,8.07
2023-05-21T03:44:44.811Z,7.40
2023-05-21T03:45:46.325Z,8.40
2023-05-21T03:46:47.841Z,8.43
2023-05-21T03:47:49.414Z,8.15
2023-05-21T03:48:50.974Z,8.05
2023-05-21T03:49:52.464Z,7.32
2023-05-21T03:50:53.930Z,8.18
2023-05-21T03:51:55.409Z,7.55
2023-05-21T03:52:56.923Z,8.25
2023-05-21T03:53:58.471Z,7.90
2023-05-21T03:54:59.946Z,8.88
2023-05-21T03:56:01.421Z,7.97
2023-05-21T03:57:02.951Z,9.00
2023-05-21T03:58:04.460Z,7.68
2023-05-21T03:59:06.032Z,8.02
2023-05-21T04:00:07.565Z,7.53
2023-05-21T04:01:09.066Z,8.27
2023-05-21T04:02:10.590Z,7.90
2023-05-21T04:03:12.274Z,8.60
2023-05-21T04:04:14.017Z,7.95
2023-05-21T04:05:15.683Z,7.72
2023-05-21T04:06:17.155Z,7.97
2023-05-21T04:07:18.660Z,6.03
2023-05-21T04:08:20.173Z,7.88
2023-05-21T04:09:21.698Z,8.07
2023-05-21T04:10:23.167Z,8.93
2023-05-21T04:11:24.618Z,7.97
2023-05-21T04:12:26.129Z,7.93
2023-05-21T04:13:27.627Z,7.95
2023-05-21T04:14:29.109Z,8.10
2023-05-21T04:15:30.577Z,8.20
2023-05-21T04:16:32.088Z,8.20
2023-05-21T04:17:33.707Z,8.20
2023-05-21T04:18:35.250Z,8.13
2023-05-21T04:19:36.888Z,8.80
2023-05-21T04:20:38.508Z,7.97
2023-05-21T04:21:40.026Z,8.82
2023-05-21T04:22:41.556Z,7.45
2023-05-21T04:23:43.041Z,8.20
2023-05-21T04:24:45.028Z,8.15
2023-05-21T04:25:46.530Z,8.65
2023-05-21T04:26:48.037Z,8.13
2023-05-21T04:27:49.549Z,8.50
2023-05-21T04:28:51.033Z,8.02
2023-05-21T04:29:52.540Z,8.35
2023-05-21T04:30:54.069Z,8.00
2023-05-21T04:31:55.563Z,8.32
2023-05-21T04:32:57.084Z,8.15
2023-05-21T04:33:58.648Z,9.00
2023-05-21T04:35:00.171Z,9.48
2023-05-21T04:36:01.679Z,8.90
2023-05-21T04:37:03.196Z,8.30
2023-05-21T04:38:04.732Z,8.77
2023-05-21T04:39:06.205Z,9.05
2023-05-21T04:40:07.725Z,7.97
2023-05-21T04:41:09.215Z,9.10
2023-05-21T04:42:10.673Z,8.13
2023-05-21T04:43:12.165Z,8.80
2023-05-21T04:44:13.721Z,9.07
2023-05-21T04:45:15.245Z,8.35
2023-05-21T04:46:16.836Z,8.15
2023-05-21T04:47:18.352Z,7.40
2023-05-21T04:48:19.858Z,8.85
2023-05-21T04:49:21.362Z,9.05
2023-05-21T04:50:22.887Z,8.43
2023-05-21T04:51:24.356Z,7.72
2023-05-21T04:52:25.859Z,8.30
2023-05-21T04:53:27.338Z,8.40
2023-05-21T04:54:28.839Z,8.93
2023-05-21T04:55:30.351Z,8.98
2023-05-21T04:56:31.964Z,7.90
2023-05-21T04:57:33.506Z,8.95
2023-05-21T04:58:34.985Z,8.20
2023-05-21T04:59:36.493Z,8.52
2023-05-21T05:00:38.039Z,9.32
2023-05-21T05:01:43.937Z,7.90
2023-05-21T05:02:47.948Z,8.75
2023-05-21T05:03:49.497Z,8.43
2023-05-21T05:04:50.977Z,8.18
2023-05-21T05:05:52.572Z,8.35
2023-05-21T05:06:54.064Z,7.75
2023-05-21T05:07:55.554Z,8.10
2023-05-21T05:08:57.045Z,7.75
2023-05-21T05:09:58.538Z,8.82
2023-05-21T05:11:00.042Z,8.07
2023-05-21T05:12:01.536Z,8.15
2023-05-21T05:13:03.061Z,8.02
2023-05-21T05:14:04.518Z,8.57
2023-05-21T05:15:06.040Z,7.38
2023-05-21T05:16:07.540Z,7.90
2023-05-21T05:17:09.022Z,8.13
2023-05-21T05:18:10.576Z,7.50
2023-05-21T05:19:12.155Z,6.43
2023-05-21T05:20:13.665Z,7.38
2023-05-21T05:21:15.137Z,8.10
2023-05-21T05:22:16.649Z,7.68
2023-05-21T05:23:18.169Z,7.28
2023-05-21T05:24:19.631Z,8.10
2023-05-21T05:25:21.158Z,7.30
2023-05-21T05:26:22.664Z,8.48
2023-05-21T05:27:24.134Z,8.30
2023-05-21T05:28:25.637Z,8.93
2023-05-21T05:29:27.119Z,8.90
2023-05-21T05:30:28.896Z,8.35
2023-05-21T05:31:30.551Z,7.38
2023-05-21T05:32:32.256Z,8.40
2023-05-21T05:33:33.783Z,7.90
2023-05-21T05:34:35.303Z,7.75
2023-05-21T05:35:37.025Z,7.80
2023-05-21T05:36:38.674Z,7.90
2023-05-21T05:37:40.176Z,8.65
2023-05-21T05:38:41.701Z,7.82
2023-05-21T05:39:43.377Z,8.20
2023-05-21T05:40:44.875Z,8.32
2023-05-21T05:41:46.368Z,7.97
2023-05-21T05:42:47.850Z,8.30
2023-05-21T05:43:49.334Z,8.15
2023-05-21T05:44:50.819Z,7.90
2023-05-21T05:45:52.330Z,8.30
2023-05-21T05:46:53.830Z,8.30
2023-05-21T05:47:56.466Z,8.68
2023-05-21T05:48:58.037Z,7.53
2023-05-21T05:49:59.573Z,7.95
2023-05-21T05:51:01.065Z,8.15
2023-05-21T05:52:02.640Z,8.15
2023-05-21T05:53:04.122Z,8.45
2023-05-21T05:54:05.628Z,8.48
2023-05-21T05:55:07.118Z,7.75
2023-05-21T05:56:08.598Z,7.80
2023-05-21T05:57:10.151Z,7.38
2023-05-21T05:58:11.691Z,8.07
2023-05-21T05:59:13.195Z,8.30
2023-05-21T06:00:14.679Z,7.25
2023-05-21T06:01:16.245Z,7.32
2023-05-21T06:02:18.302Z,7.80
2023-05-21T06:03:19.954Z,9.07
2023-05-21T06:04:21.587Z,7.95
2023-05-21T06:05:23.223Z,7.20
2023-05-21T06:06:24.776Z,7.65
2023-05-21T06:07:26.314Z,8.60
2023-05-21T06:08:27.813Z,8.07
2023-05-21T06:09:29.289Z,8.10
2023-05-21T06:10:30.851Z,7.47
2023-05-21T06:11:32.350Z,7.88
2023-05-21T06:12:33.890Z,7.72
2023-05-21T06:13:35.368Z,8.40
2023-05-21T06:14:36.863Z,7.10
2023-05-21T06:15:38.533Z,8.57
2023-05-21T06:16:40.155Z,6.78
2023-05-21T06:17:41.738Z,7.60
2023-05-21T06:18:43.260Z,7.35
2023-05-21T06:19:44.761Z,7.15
2023-05-21T06:20:46.243Z,7.70
2023-05-21T06:21:47.721Z,7.50
2023-05-21T06:22:49.248Z,7.57
2023-05-21T06:23:50.747Z,7.70
2023-05-21T06:24:52.253Z,7.35
2023-05-21T06:25:53.756Z,8.73
2023-05-21T06:26:55.278Z,8.43
2023-05-21T06:27:56.778Z,8.18
2023-05-21T06:28:58.242Z,8.25
2023-05-21T06:29:59.730Z,8.77
2023-05-21T06:31:01.987Z,7.95
2023-05-21T06:32:03.501Z,8.18
2023-05-21T06:33:05.076Z,7.28
2023-05-21T06:34:06.898Z,8.05
2023-05-21T06:35:08.470Z,8.25
2023-05-21T06:36:09.991Z,7.95
2023-05-21T06:37:11.492Z,7.95
2023-05-21T06:38:12.998Z,8.43
2023-05-21T06:39:14.507Z,8.45
2023-05-21T06:40:15.995Z,8.13
2023-05-21T06:41:17.458Z,8.20
2023-05-21T06:42:18.960Z,8.38
2023-05-21T06:43:20.472Z,7.60
2023-05-21T06:44:21.972Z,8.02
2023-05-21T06:45:23.438Z,8.43
2023-05-21T06:46:24.967Z,8.70
2023-05-21T06:47:26.576Z,7.40
2023-05-21T06:48:28.114Z,8.68
2023-05-21T06:49:29.652Z,7.75
2023-05-21T06:50:31.165Z,8.02
2023-05-21T06:51:32.649Z,8.13
2023-05-21T06:52:34.150Z,8.52
2023-05-21T06:53:35.665Z,7.60
2023-05-21T06:54:37.189Z,8.00
2023-05-21T06:55:38.920Z,8.00
2023-05-21T06:56:40.593Z,8.23
2023-05-21T06:57:42.102Z,8.35
2023-05-21T06:58:43.604Z,9.07
2023-05-21T06:59:45.134Z,6.93
2023-05-21T07:00:46.656Z,7.10
2023-05-21T07:01:48.245Z,7.80
2023-05-21T07:02:49.850Z,6.95
2023-05-21T07:03:51.392Z,8.20
2023-05-21T07:04:53.081Z,7.43
2023-05-21T07:05:54.615Z,7.30
2023-05-21T07:06:56.115Z,7.40
2023-05-21T07:07:57.618Z,7.68
2023-05-21T07:08:59.078Z,6.97
2023-05-21T07:10:00.572Z,7.68
2023-05-21T07:11:02.043Z,7.55
2023-05-21T07:12:03.722Z,7.30
2023-05-21T07:13:05.242Z,7.88
2023-05-21T07:14:06.727Z,7.20
2023-05-21T07:15:08.236Z,7.70
2023-05-21T07:16:09.680Z,7.72
2023-05-21T07:17:11.344Z,7.65
2023-05-21T07:18:13.064Z,7.53
2023-05-21T07:19:14.752Z,7.47
2023-05-21T07:20:16.336Z,7.50
2023-05-21T07:21:17.827Z,7.53
2023-05-21T07:22:19.411Z,7.38
2023-05-21T07:23:20.900Z,6.75
2023-05-21T07:24:22.405Z,7.35
2023-05-21T07:25:23.940Z,7.80
2023-05-21T07:26:25.433Z,7.90
2023-05-21T07:27:27.035Z,7.75
2023-05-21T07:28:28.533Z,7.72
2023-05-21T07:29:30.064Z,7.50
2023-05-21T07:30:31.572Z,7.15
2023-05-21T07:31:33.152Z,7.38
2023-05-21T07:32:34.866Z,8.02
2023-05-21T07:33:36.482Z,7.38
2023-05-21T07:34:38.349Z,7.18
2023-05-21T07:35:39.846Z,8.60
2023-05-21T07:36:41.342Z,8.25
2023-05-21T07:37:42.876Z,8.77
2023-05-21T07:38:44.358Z,8.02
2023-05-21T07:39:45.854Z,7.95
2023-05-21T07:40:47.356Z,7.95
2023-05-21T07:41:48.898Z,8.57
2023-05-21T07:42:50.397Z,7.95
2023-05-21T07:43:51.926Z,7.72
2023-05-21T07:44:53.418Z,7.28
2023-05-21T07:45:54.928Z,7.50
2023-05-21T07:46:56.433Z,7.38
2023-05-21T07:47:57.989Z,7.53
2023-05-21T07:48:59.548Z,8.95
2023-05-21T07:50:01.037Z,8.20
2023-05-21T07:51:02.512Z,7.57
2023-05-21T07:52:04.092Z,6.32
2023-05-21T07:53:05.617Z,7.82
2023-05-21T07:54:07.355Z,7.65
2023-05-21T07:55:08.889Z,7.35
2023-05-21T07:56:10.365Z,7.57
2023-05-21T07:57:11.877Z,7.38
2023-05-21T07:58:13.397Z,6.97
2023-05-21T07:59:14.916Z,8.02
2023-05-21T08:00:16.410Z,7.50
2023-05-21T08:01:17.905Z,7.40
2023-05-21T08:02:19.528Z,6.95
2023-05-21T08:03:21.208Z,6.57
2023-05-21T08:04:22.948Z,7.95
2023-05-21T08:05:24.677Z,7.13
2023-05-21T08:06:26.221Z,7.65
2023-05-21T08:07:27.817Z,8.80
2023-05-21T08:08:29.365Z,7.22
2023-05-21T08:09:30.848Z,7.75
2023-05-21T08:10:32.335Z,7.95
2023-05-21T08:11:33.808Z,8.27
2023-05-21T08:12:35.321Z,7.28
2023-05-21T08:13:36.881Z,7.97
2023-05-21T08:14:38.369Z,8.23
2023-05-21T08:15:39.858Z,7.35
2023-05-21T08:16:41.460Z,8.52
2023-05-21T08:17:43.085Z,4.88
2023-05-21T08:18:44.634Z,6.95
2023-05-21T08:19:46.140Z,7.80
2023-05-21T08:20:47.631Z,6.97
2023-05-21T08:21:50.872Z,7.28
2023-05-21T08:22:53.641Z,6.25
2023-05-21T08:23:55.186Z,6.90
2023-05-21T08:24:56.706Z,7.28
2023-05-21T08:25:58.171Z,6.97
2023-05-21T08:26:59.638Z,7.35
2023-05-21T08:28:01.121Z,6.63
2023-05-21T08:29:02.652Z,7.45
2023-05-21T08:30:04.145Z,6.95
2023-05-21T08:31:05.618Z,8.20
2023-05-21T08:32:07.243Z,7.22
2023-05-21T08:33:08.893Z,7.07
2023-05-21T08:34:10.666Z,7.28
2023-05-21T08:35:12.155Z,6.93
2023-05-21T08:36:13.648Z,7.55
2023-05-21T08:37:15.145Z,8.23
2023-05-21T08:38:16.630Z,8.25
2023-05-21T08:39:18.152Z,7.50
2023-05-21T08:40:19.650Z,8.32
2023-05-21T08:41:21.112Z,8.10
2023-05-21T08:42:32.837Z,7.93
2023-05-21T08:43:38.247Z,7.85
2023-05-21T08:44:39.766Z,7.47
2023-05-21T08:45:41.291Z,7.32
2023-05-21T08:46:42.809Z,7.15
2023-05-21T08:47:44.414Z,7.05
2023-05-21T08:48:46.012Z,8.27
2023-05-21T08:49:47.540Z,7.43
2023-05-21T08:50:51.632Z,7.82
2023-05-21T08:51:53.184Z,6.85
2023-05-21T08:52:54.676Z,6.97
2023-05-21T08:53:56.190Z,7.40
2023-05-21T08:54:57.700Z,6.90
2023-05-21T08:55:59.190Z,7.30
2023-05-21T08:57:00.756Z,6.55
2023-05-21T08:58:02.294Z,6.70
2023-05-21T08:59:03.764Z,7.40
2023-05-21T09:00:05.246Z,6.75
2023-05-21T09:01:06.771Z,7.20
2023-05-21T09:02:08.286Z,6.78
2023-05-21T09:03:09.810Z,6.93
2023-05-21T09:04:20.358Z,7.28
2023-05-21T09:05:23.055Z,6.88
2023-05-21T09:06:24.549Z,6.85
2023-05-21T09:07:26.028Z,7.00
2023-05-21T09:08:27.494Z,7.07
2023-05-21T09:09:29.023Z,6.75
2023-05-21T09:10:31.000Z,6.50
2023-05-21T09:11:32.540Z,7.38
2023-05-21T09:12:34.029Z,6.03
2023-05-21T09:13:37.437Z,7.53
2023-05-21T09:14:40.262Z,6.57
2023-05-21T09:15:41.789Z,6.60
2023-05-21T09:16:43.348Z,6.95
2023-05-21T09:17:44.860Z,6.43
2023-05-21T09:18:46.416Z,6.22
2023-05-21T09:19:47.882Z,6.75
2023-05-21T09:20:49.403Z,6.53
2023-05-21T09:21:50.888Z,6.97
2023-05-21T09:22:52.382Z,6.95
2023-05-21T09:23:53.867Z,5.97
2023-05-21T09:24:55.353Z,6.70
2023-05-21T09:25:56.868Z,6.95
2023-05-21T09:26:58.361Z,6.63
2023-05-21T09:27:59.871Z,6.15
2023-05-21T09:29:01.402Z,6.45
2023-05-21T09:30:02.936Z,6.70
2023-05-21T09:31:04.496Z,6.57
2023-05-21T09:32:06.083Z,6.65
2023-05-21T09:33:07.626Z,6.57
2023-05-21T09:34:09.167Z,6.75
2023-05-21T09:35:10.675Z,5.68
2023-05-21T09:36:12.173Z,5.93
2023-05-21T09:37:26.561Z,6.95
2023-05-21T09:38:28.848Z,6.75
2023-05-21T09:39:30.445Z,6.20
2023-05-21T09:40:31.937Z,6.05
2023-05-21T09:41:33.485Z,6.85
2023-05-21T09:42:35.107Z,6.40
2023-05-21T09:43:36.614Z,5.93
2023-05-21T09:44:38.090Z,6.13
2023-05-21T09:45:39.622Z,6.32
2023-05-21T09:46:41.443Z,6.53
2023-05-21T09:47:43.378Z,6.10
2023-05-21T09:48:44.936Z,6.75
2023-05-21T09:49:46.442Z,5.80
2023-05-21T09:50:47.928Z,6.63
2023-05-21T09:51:49.421Z,6.15
2023-05-21T09:52:50.913Z,5.50
2023-05-21T09:53:52.385Z,5.43
2023-05-21T09:54:53.881Z,5.93
2023-05-21T09:55:55.388Z,5.10
2023-05-21T09:56:56.928Z,5.10
2023-05-21T09:57:58.454Z,5.90
2023-05-21T09:58:59.982Z,5.53
2023-05-21T10:00:01.452Z,5.80
2023-05-21T10:01:02.977Z,5.88
2023-05-21T10:02:04.531Z,5.78
2023-05-21T10:03:06.180Z,5.22
2023-05-21T10:04:07.720Z,5.80
2023-05-21T10:05:09.219Z,5.30
2023-05-21T10:06:10.713Z,5.50
2023-05-21T10:07:12.269Z,5.57
2023-05-21T10:08:13.774Z,6.07
2023-05-21T10:09:15.313Z,6.00
2023-05-21T10:10:16.830Z,5.30
2023-05-21T10:11:18.289Z,5.57
2023-05-21T10:12:19.774Z,5.30
2023-05-21T10:13:21.670Z,5.50
2023-05-21T10:14:23.190Z,5.25
2023-05-21T10:15:24.692Z,5.45
2023-05-21T10:16:26.228Z,5.15
2023-05-21T10:17:27.744Z,6.10
2023-05-21T10:18:29.301Z,5.22
2023-05-21T10:19:30.828Z,5.20
2023-05-21T10:20:32.370Z,5.72
2023-05-21T10:21:33.872Z,5.07
2023-05-21T10:22:35.340Z,5.30
2023-05-21T10:23:36.881Z,5.55
2023-05-21T10:24:38.373Z,5.35
2023-05-21T10:25:39.864Z,5.65
2023-05-21T10:26:41.354Z,5.25
2023-05-21T10:27:42.817Z,5.57
2023-05-21T10:28:44.319Z,4.95
2023-05-21T10:29:45.892Z,5.50
2023-05-21T10:30:47.591Z,4.70
2023-05-21T10:31:49.157Z,5.20
2023-05-21T10:32:50.961Z,6.35
2023-05-21T10:33:52.896Z,4.82
2023-05-21T10:34:54.433Z,5.00
2023-05-21T10:35:55.893Z,5.05
2023-05-21T10:36:57.420Z,5.13
2023-05-21T10:37:59.020Z,5.22
2023-05-21T10:39:00.596Z,5.35
2023-05-21T10:40:02.148Z,5.18
2023-05-21T10:41:03.690Z,5.47
2023-05-21T10:42:05.202Z,4.68
2023-05-21T10:43:06.718Z,5.00
2023-05-21T10:44:08.897Z,5.22
2023-05-21T10:45:10.378Z,5.72
2023-05-21T10:46:11.963Z,5.30
2023-05-21T10:47:13.530Z,4.50
2023-05-21T10:48:15.087Z,5.05
2023-05-21T10:49:16.602Z,5.15
2023-05-21T10:50:18.110Z,4.43
2023-05-21T10:51:19.608Z,4.97
2023-05-21T10:52:21.120Z,5.03
2023-05-21T10:53:22.629Z,5.07
2023-05-21T10:54:24.314Z,4.63
2023-05-21T10:55:25.829Z,5.15
2023-05-21T10:56:27.344Z,4.85
2023-05-21T10:57:28.896Z,5.55
2023-05-21T10:58:30.367Z,4.78
2023-05-21T10:59:31.876Z,5.10
2023-05-21T11:00:33.394Z,4.20
2023-05-21T11:01:34.916Z,4.85
2023-05-21T11:02:36.546Z,4.90
2023-05-21T11:03:38.263Z,4.85
2023-05-21T11:04:39.999Z,4.90
2023-05-21T11:05:41.642Z,4.88
2023-05-21T11:06:43.162Z,5.20
2023-05-21T11:07:44.749Z,4.53
2023-05-21T11:08:46.234Z,5.15
2023-05-21T11:09:47.770Z,4.75
2023-05-21T11:10:49.238Z,4.65
2023-05-21T11:11:50.830Z,4.43
2023-05-21T11:12:52.360Z,4.97
2023-05-21T11:13:53.840Z,4.60
2023-05-21T11:14:55.300Z,5.57
2023-05-21T11:15:56.795Z,5.63
2023-05-21T11:16:58.811Z,5.05
2023-05-21T11:18:00.361Z,4.85
2023-05-21T11:19:01.881Z,5.15
2023-05-21T11:20:03.512Z,4.43
2023-05-21T11:21:04.973Z,5.28
2023-05-21T11:22:06.498Z,4.25
2023-05-21T11:23:07.990Z,5.35
2023-05-21T11:24:09.488Z,5.43
2023-05-21T11:25:10.992Z,4.68
2023-05-21T11:26:12.476Z,4.85
2023-05-21T11:27:14.000Z,5.03
2023-05-21T11:28:15.489Z,5.13
2023-05-21T11:29:16.967Z,4.80
2023-05-21T11:30:18.516Z,5.15
2023-05-21T11:31:20.231Z,5.00
2023-05-21T11:32:21.746Z,4.80
2023-05-21T11:33:23.734Z,5.20
2023-05-21T11:34:25.244Z,4.80
2023-05-21T11:35:26.728Z,5.43
2023-05-21T11:36:28.194Z,4.95
2023-05-21T11:37:29.692Z,5.22
2023-05-21T11:38:31.216Z,4.65
2023-05-21T11:39:32.708Z,4.60
2023-05-21T11:40:34.557Z,5.38
2023-05-21T11:41:36.262Z,4.63
2023-05-21T11:42:37.776Z,4.80
2023-05-21T11:43:39.253Z,4.65
2023-05-21T11:44:40.748Z,4.95
2023-05-21T11:45:42.236Z,4.97
2023-05-21T11:46:43.774Z,5.00
2023-05-21T11:47:45.365Z,4.82
2023-05-21T11:48:46.875Z,4.57
2023-05-21T11:49:48.329Z,4.90
2023-05-21T11:50:49.827Z,5.22
2023-05-21T11:51:51.307Z,4.47
2023-05-21T11:52:52.826Z,5.85
2023-05-21T11:53:54.342Z,4.57
2023-05-21T11:54:56.105Z,4.60
2023-05-21T11:55:57.914Z,5.20
2023-05-21T11:56:59.499Z,5.40
2023-05-21T11:58:01.107Z,5.15
2023-05-21T11:59:02.583Z,5.45
2023-05-21T12:00:04.167Z,5.03
2023-05-21T12:01:05.663Z,5.43
2023-05-21T12:02:07.163Z,5.32
2023-05-21T12:03:08.745Z,5.45
2023-05-21T12:04:10.505Z,4.82
2023-05-21T12:05:13.286Z,4.90
2023-05-21T12:06:15.026Z,4.97
2023-05-21T12:07:16.565Z,5.10
2023-05-21T12:08:18.171Z,5.40
2023-05-21T12:09:19.640Z,4.78
2023-05-21T12:10:21.209Z,4.80
2023-05-21T12:11:22.736Z,5.00
2023-05-21T12:12:24.249Z,5.43
2023-05-21T12:13:25.718Z,4.75
2023-05-21T12:14:27.307Z,4.80
2023-05-21T12:15:28.817Z,5.13
2023-05-21T12:16:30.294Z,4.78
2023-05-21T12:17:31.988Z,4.53
2023-05-21T12:18:33.585Z,4.65
2023-05-21T12:19:35.089Z,4.85
2023-05-21T12:20:36.854Z,5.10
2023-05-21T12:21:38.492Z,5.22
2023-05-21T12:22:39.989Z,6.05
2023-05-21T12:23:41.517Z,4.95
2023-05-21T12:24:43.014Z,4.95
2023-05-21T12:25:44.529Z,5.15
2023-05-21T12:26:46.060Z,4.82
2023-05-21T12:27:47.582Z,5.32
2023-05-21T12:28:49.153Z,5.20
2023-05-21T12:29:50.720Z,5.15
2023-05-21T12:30:52.233Z,4.70
2023-05-21T12:31:53.825Z,4.85
2023-05-21T12:32:55.491Z,4.85
2023-05-21T12:33:57.084Z,5.05
2023-05-21T12:34:58.635Z,4.78
2023-05-21T12:36:00.199Z,4.43
2023-05-21T12:37:01.752Z,5.10
2023-05-21T12:38:03.283Z,4.78
2023-05-21T12:39:04.868Z,4.68
2023-05-21T12:40:06.444Z,5.20
2023-05-21T12:41:07.944Z,4.60
2023-05-21T12:42:09.477Z,5.25
2023-05-21T12:43:11.162Z,4.68
2023-05-21T12:44:12.737Z,4.25
2023-05-21T12:45:14.497Z,4.75
2023-05-21T12:46:16.307Z,4.82
2023-05-21T12:47:17.945Z,5.03
2023-05-21T12:48:19.455Z,4.40
2023-05-21T12:49:21.003Z,4.78
2023-05-21T12:50:22.814Z,4.18
2023-05-21T12:51:24.324Z,4.57
2023-05-21T12:52:25.858Z,4.43
2023-05-21T12:53:27.531Z,5.13
2023-05-21T12:54:29.066Z,4.78
2023-05-21T12:55:30.586Z,4.50
2023-05-21T12:56:32.078Z,4.75
2023-05-21T12:57:33.574Z,4.47
2023-05-21T12:58:35.133Z,5.32
2023-05-21T12:59:36.806Z,4.88
2023-05-21T13:00:38.785Z,4.78
2023-05-21T13:01:40.473Z,4.72
2023-05-21T13:02:42.064Z,4.80
2023-05-21T13:03:44.262Z,4.90
2023-05-21T13:04:45.810Z,4.40
2023-05-21T13:05:47.352Z,4.90
2023-05-21T13:06:48.854Z,4.97
2023-05-21T13:07:50.351Z,4.30
2023-05-21T13:08:51.871Z,4.82
2023-05-21T13:09:53.379Z,5.38
2023-05-21T13:10:54.877Z,5.38
2023-05-21T13:11:56.373Z,4.80
2023-05-21T13:12:57.915Z,4.50
2023-05-21T13:13:59.436Z,4.55
2023-05-21T13:15:00.911Z,4.40
2023-05-21T13:16:02.399Z,4.60
2023-05-21T13:17:03.915Z,4.90
2023-05-21T13:18:05.432Z,4.90
2023-05-21T13:19:07.188Z,4.88
2023-05-21T13:20:08.724Z,4.47
2023-05-21T13:21:10.285Z,4.70
2023-05-21T13:22:11.821Z,4.78
2023-05-21T13:23:13.359Z,5.05
2023-05-21T13:24:14.930Z,4.45
2023-05-21T13:25:16.455Z,4.05
2023-05-21T13:26:17.921Z,4.85
2023-05-21T13:27:19.476Z,4.60
2023-05-21T13:28:21.013Z,4.88
2023-05-21T13:29:22.538Z,4.80
2023-05-21T13:30:24.033Z,5.10
2023-05-21T13:31:25.569Z,4.68
2023-05-21T13:32:27.122Z,4.43
2023-05-21T13:33:28.850Z,4.53
2023-05-21T13:34:30.434Z,4.57
2023-05-21T13:35:31.935Z,4.45
2023-05-21T13:36:33.673Z,4.88
2023-05-21T13:37:35.205Z,4.70
2023-05-21T13:38:36.717Z,4.63
2023-05-21T13:39:38.252Z,4.70
2023-05-21T13:40:40.316Z,4.90
2023-05-21T13:41:42.089Z,4.88